Nearby METAR Reports

 

KMNN - Marion, Ohio, USA
Distance from station: ENE 4mi, 6km
Updated: 09/17/2019 9:53am
Clear
Clear
 Wind from NNE
Wind: NNE 10 mph , 17 km/h
Temperature: 70°F , 21°C
Dew Point: 63°F , 17°C
Humidity: 78%
Barometer: 30.19 inHg , 1022.4 hPa
Clouds: Clear
Visibility: 7 miles , 11 km
2019/09/17 13:53 KMNN 171353Z AUTO 03009KT 7SM CLR 21/17 A3019 RMK AO2 SLP220 T02110172
KDLZ - Delaware, Ohio, USA
Distance from station: S 21mi, 34km
Updated: 09/17/2019 9:55am
Clear
Clear
 Wind from NNE
Wind: NNE 9 mph , 15 km/h
Temperature: 70°F , 21°C
Dew Point: 63°F , 17°C
Humidity: 78%
Barometer: 30.18 inHg , 1022 hPa
Clouds: Clear
Visibility: 10 miles , 16 km
2019/09/17 13:55 KDLZ 171355Z AUTO 02008KT 10SM CLR 21/17 A3018 RMK AO2
 
KMRT - Marysville, Ohio, USA
Distance from station: SSW 28mi, 45km
Updated: 09/17/2019 9:57am
Partly cloudy
Partly cloudy
 Wind from NNE
Wind: NNE 10 mph , 17 km/h
Temperature: 68°F , 20°C
Dew Point: 63°F , 17°C
Humidity: 83%
Barometer: 30.18 inHg , 1022 hPa
Clouds: Partly cloudy
Visibility: 10 miles , 16 km
Cloud details: Partly cloudy 700 ft
2019/09/17 13:57 KMRT 171357Z AUTO 02009KT 10SM SCT007 20/17 A3018 RMK AO2 T02000169
KOSU - Columbus/St Univ, Ohio, USA
Distance from station: S 35mi, 56km
Updated: 09/17/2019 9:53am
Clear
Clear
 Wind from NNE
Wind: NNE 12 mph , 19 km/h
Temperature: 70°F , 21°C
Dew Point: 63°F , 17°C
Humidity: 78%
Barometer: 30.16 inHg , 1021.3 hPa
Clouds: Clear
Visibility: 10 miles , 16 km
2019/09/17 13:53 KOSU 171353Z 03010KT 10SM CLR 21/17 A3016 RMK AO2 SLP206 T02110167
 
KMFD - Mansfield, Ohio, USA
Distance from station: ENE 36mi, 57km
Updated: 09/17/2019 9:52am
Partly cloudy
Partly cloudy
 Wind from NNE
Wind: NNE 10 mph , 17 km/h
Temperature: 66°F , 19°C
Dew Point: 64°F , 18°C
Humidity: 94%
Barometer: 30.20 inHg , 1022.7 hPa
Clouds: Partly cloudy
Visibility: 8 miles , 13 km
Cloud details: Partly cloudy 800 ft
2019/09/17 13:52 KMFD 171352Z 03009KT 8SM SCT008 19/18 A3020 RMK AO2 SLP220 T01940183
K4I3 - Mt Vernon/Knox, Ohio, USA
Distance from station: ESE 36mi, 58km
Updated: 09/17/2019 9:57am
Overcast
Overcast
 Wind from N
Wind: N 8 mph , 13 km/h
Temperature: 66°F , 19°C
Dew Point: 64°F , 18°C
Humidity: 94%
Barometer: 30.19 inHg , 1022.4 hPa
Clouds: Overcast
Visibility: 7 miles , 11 km
Cloud details: Overcast 400 ft
2019/09/17 13:57 K4I3 171357Z AUTO 36007KT 7SM OVC004 19/18 A3019 RMK AO2
 
KEDJ - Bellefontaine, Ohio, USA
Distance from station: WSW 39mi, 63km
Updated: 09/17/2019 10:00am
Mostly cloudy
Mostly cloudy
 Wind from ENE
Wind: ENE 15 mph , 24 km/h
Temperature: 66°F , 19°C
Barometer: 30.20 inHg , 1022.7 hPa
Clouds: Mostly cloudy
Visibility: 10 miles , 16 km
Cloud details: Mostly cloudy 1000 ft
2019/09/17 14:00 KEDJ 171400Z AUTO 06013KT 10SM BKN010 19/ A3020 RMK AO1
KFDY - Findlay, Ohio, USA
Distance from station: NW 41mi, 66km
Updated: 09/17/2019 10:00am
Overcast
Overcast
 Wind from NNE
Wind: NNE 10 mph , 17 km/h
Temperature: 70°F , 21°C
Dew Point: 64°F , 18°C
Humidity: 83%
Barometer: 30.19 inHg , 1022.4 hPa
Clouds: Overcast
Visibility: 10 miles , 16 km
Cloud details: Overcast 1000 ft
2019/09/17 14:00 KFDY 171400Z AUTO 03009KT 10SM OVC010 21/18 A3019 RMK AO2 T02110178
 
KCMH - Columbus, Ohio, USA
Distance from station: SSE 43mi, 69km
Updated: 09/17/2019 9:51am
Clear
Clear
 Wind from NE
Wind: NE 8 mph , 13 km/h
Temperature: 72°F , 22°C
Dew Point: 61°F , 16°C
Humidity: 69%
Barometer: 30.14 inHg , 1020.7 hPa
Clouds: Clear
Visibility: 10 miles , 16 km
2019/09/17 13:51 KCMH 171351Z 04007KT 10SM CLR 22/16 A3014 RMK AO2 SLP201 T02170161
KAOH - Lima, Ohio, USA
Distance from station: W 47mi, 76km
Updated: 09/17/2019 9:53am
Overcast
Overcast
 Wind from NE
Wind: NE 7 mph , 11 km/h
Temperature: 70°F , 21°C
Dew Point: 64°F , 18°C
Humidity: 83%
Barometer: 30.19 inHg , 1022.4 hPa
Clouds: Overcast
Visibility: 10 miles , 16 km
Cloud details: Few Clouds 1000 ft
Overcast 2300 ft
2019/09/17 13:53 KAOH 171353Z AUTO 04006KT 10SM FEW010 OVC023 21/18 A3019 RMK AO2 SLP218 T02060178 $
 
KTZR - Columbus/Bolton, Ohio, USA
Distance from station: S 48mi, 77km
Updated: 09/17/2019 9:47am
Clear
Clear
 Wind from NNE
Wind: NNE 8 mph , 13 km/h
Temperature: 70°F , 21°C
Dew Point: 63°F , 17°C
Humidity: 78%
Barometer: 30.16 inHg , 1021.3 hPa
Clouds: Clear
Visibility: 10 miles , 16 km
2019/09/17 13:47 KTZR 171347Z 02007KT 10SM SKC 21/17 A3016
KUYF - London, Ohio, USA
Distance from station: SSW 49mi, 78km
Updated: 09/17/2019 9:55am
Partly cloudy
Partly cloudy
 Wind from NNE
Wind: NNE 13 mph , 20 km/h
Temperature: 68°F , 20°C
Dew Point: 66°F , 19°C
Humidity: 94%
Barometer: 30.17 inHg , 1021.7 hPa
Clouds: Partly cloudy
Visibility: 10 miles , 16 km
Cloud details: Partly cloudy 900 ft
Partly cloudy 1300 ft
2019/09/17 13:55 KUYF 171355Z AUTO 02011KT 10SM SCT009 SCT013 20/19 A3017 RMK AO2